Easton, Pennsylvania
Current Conditions -  °F | °C
As of 10:51 PM on Tuesday 27 Jan 2015 (Local Time) from KABE Reporting Station
Clear Clear  
Wind Chill:   Ceiling: Unl
Heat Index: 18°   Visibility: 10mi
Dew Point:   Wind: 20mph
Humidity: 57%   Direction: 340°NNW
Pressure: 29.9"   Gusts: 26mph
Location:  40.69°N, 75.21°W
Report Text: KABE 280351Z 34017G23KT 10SM CLR M08/M15 A2990 RMK AO2 SLP130 T10781150
Loading
Personal Weather Stations






























Interactive Weather Map New forecast layout! Learn more

10-Day Weather Forecast

Advertisements
Track Severe Weather on mobile